Time,TemperatureF,DewpointF,PressureIn,WindDirection,WindDirectionDegrees,WindSpeedMPH,WindSpeedGustMPH,Humidity,HourlyPrecipIn,Conditions,Clouds,dailyrainin,SoftwareType,DateUTC
2013-06-04 00:02:00,59.2,45.3,30.01,East,88,0.0,4.0,60,0.00,,SKC,0.00,VWS V14.01,2013-06-04 05:02:00,
2013-06-04 00:07:00,59.1,45.2,30.01,ESE,107,0.0,5.0,60,0.00,,SKC,0.00,VWS V14.01,2013-06-04 05:07:00,
2013-06-04 00:12:00,59.0,45.2,30.00,East,94,0.0,5.0,60,0.00,,SKC,0.00,VWS V14.01,2013-06-04 05:12:00,
2013-06-04 00:17:00,58.9,45.1,30.00,ESE,103,5.0,5.0,60,0.00,,SKC,0.00,VWS V14.01,2013-06-04 05:17:00,
2013-06-04 00:22:00,58.9,45.0,30.00,East,92,0.0,-999.0,60,-99.99,,,0.00,weatherlink.com 1.10,2013-06-04 05:22:00,
2013-06-04 00:27:00,58.8,45.4,30.00,East,84,0.0,5.0,61,0.00,,SKC,0.00,VWS V14.01,2013-06-04 05:27:00,
2013-06-04 00:32:00,58.8,45.4,30.00,East,92,1.0,2.0,61,0.00,,SKC,0.00,VWS V14.01,2013-06-04 05:32:00,
2013-06-04 00:37:00,58.7,44.9,30.00,ESE,119,0.0,5.0,60,0.00,,SKC,0.00,VWS V14.01,2013-06-04 05:37:00,
2013-06-04 00:42:00,58.8,44.5,30.00,SE,130,0.0,5.0,59,0.00,,SKC,0.00,VWS V14.01,2013-06-04 05:42:00,
2013-06-04 00:47:00,58.8,44.5,29.99,ESE,105,1.0,5.0,59,0.00,,SKC,0.00,VWS V14.01,2013-06-04 05:47:00,
2013-06-04 00:52:00,58.8,44.1,29.98,ESE,104,5.0,5.0,58,0.00,,SKC,0.00,VWS V14.01,2013-06-04 05:52:00,
2013-06-04 00:57:00,58.8,43.6,29.98,ENE,76,5.0,5.0,57,0.00,,SKC,0.00,VWS V14.01,2013-06-04 05:57:00,
2013-06-04 01:02:00,58.9,43.2,29.97,ESE,112,2.0,8.0,56,0.00,,SKC,0.00,VWS V14.01,2013-06-04 06:02:00,
2013-06-04 01:07:00,58.9,42.3,29.97,ENE,78,4.0,8.0,54,0.00,,SKC,0.00,VWS V14.01,2013-06-04 06:07:00,
2013-06-04 01:12:00,59.0,42.4,29.97,East,101,4.0,8.0,54,0.00,,SKC,0.00,VWS V14.01,2013-06-04 06:12:00,
2013-06-04 01:17:00,59.0,42.4,29.97,East,86,4.0,8.0,54,0.00,,SKC,0.00,VWS V14.01,2013-06-04 06:17:00,
2013-06-04 01:22:00,59.0,41.4,29.97,ESE,109,5.0,8.0,52,0.00,,SKC,0.00,VWS V14.01,2013-06-04 06:22:00,
2013-06-04 01:27:00,59.1,41.5,29.96,East,88,4.0,9.0,52,0.00,,SKC,0.00,VWS V14.01,2013-06-04 06:27:00,
2013-06-04 01:32:00,59.2,41.1,29.95,ESE,107,4.0,7.0,51,0.00,,SKC,0.00,VWS V14.01,2013-06-04 06:32:00,
2013-06-04 01:37:00,59.1,40.5,29.96,ESE,105,2.0,7.0,50,0.00,,SKC,0.00,VWS V14.01,2013-06-04 06:37:00,
2013-06-04 01:42:00,59.1,40.5,29.96,ESE,111,2.0,7.0,50,0.00,,SKC,0.00,VWS V14.01,2013-06-04 06:42:00,
2013-06-04 01:47:00,59.2,40.6,29.96,SE,132,6.0,9.0,50,0.00,,SKC,0.00,VWS V14.01,2013-06-04 06:47:00,
2013-06-04 01:52:00,59.2,40.6,29.97,ESE,113,0.0,9.0,50,0.00,,SKC,0.00,VWS V14.01,2013-06-04 06:52:00,
2013-06-04 01:57:00,59.1,40.5,29.98,ESE,104,4.0,9.0,50,0.00,,SKC,0.00,VWS V14.01,2013-06-04 06:57:00,
2013-06-04 02:02:00,59.1,40.5,29.98,East,101,1.0,4.0,50,0.00,,SKC,0.00,VWS V14.01,2013-06-04 07:02:00,
2013-06-04 02:07:00,59.0,40.4,29.99,East,98,0.0,4.0,50,0.00,,SKC,0.00,VWS V14.01,2013-06-04 07:07:00,
2013-06-04 02:12:00,58.9,40.3,29.99,East,92,2.0,5.0,50,0.00,,SKC,0.00,VWS V14.01,2013-06-04 07:12:00,
2013-06-04 02:17:00,58.9,40.3,29.99,East,93,1.0,6.0,50,0.00,,SKC,0.00,VWS V14.01,2013-06-04 07:17:00,
2013-06-04 02:22:00,58.8,40.2,29.99,East,93,0.0,6.0,50,0.00,,SKC,0.00,VWS V14.01,2013-06-04 07:22:00,
2013-06-04 02:27:00,58.7,40.6,29.99,East,94,0.0,6.0,51,0.00,,SKC,0.00,VWS V14.01,2013-06-04 07:27:00,
2013-06-04 02:32:00,58.5,41.0,30.00,East,94,0.0,2.0,52,0.00,,SKC,0.00,VWS V14.01,2013-06-04 07:32:00,
2013-06-04 02:37:00,58.4,40.4,30.01,East,94,0.0,2.0,51,0.00,,SKC,0.00,VWS V14.01,2013-06-04 07:37:00,
2013-06-04 02:42:00,58.3,41.8,30.01,East,94,0.0,2.0,54,0.00,,SKC,0.00,VWS V14.01,2013-06-04 07:42:00,
2013-06-04 02:47:00,58.1,41.6,30.01,East,94,0.0,2.0,54,0.00,,SKC,0.00,VWS V14.01,2013-06-04 07:47:00,
2013-06-04 02:52:00,57.9,42.8,30.01,East,94,0.0,2.0,57,0.00,,SKC,0.00,VWS V14.01,2013-06-04 07:52:00,
2013-06-04 02:57:00,57.6,42.0,30.01,East,94,0.0,2.0,56,0.00,,SKC,0.00,VWS V14.01,2013-06-04 07:57:00,
2013-06-04 03:02:00,57.3,41.3,30.01,East,94,0.0,1.0,55,0.00,,SKC,0.00,VWS V14.01,2013-06-04 08:02:00,
2013-06-04 03:07:00,57.1,42.0,30.01,East,94,0.0,1.0,57,0.00,,SKC,0.00,VWS V14.01,2013-06-04 08:07:00,
2013-06-04 03:12:00,57.0,41.5,30.01,East,94,0.0,1.0,56,0.00,,SKC,0.00,VWS V14.01,2013-06-04 08:12:00,
2013-06-04 03:17:00,57.0,41.5,30.01,East,94,0.0,1.0,56,0.00,,SKC,0.00,VWS V14.01,2013-06-04 08:17:00,
2013-06-04 03:22:00,56.9,41.8,30.01,East,94,0.0,1.0,57,0.00,,SKC,0.00,VWS V14.01,2013-06-04 08:22:00,
2013-06-04 03:27:00,56.9,41.8,30.01,East,94,0.0,1.0,57,0.00,,SKC,0.00,VWS V14.01,2013-06-04 08:27:00,
2013-06-04 03:32:00,56.9,42.3,30.02,East,94,0.0,0.0,58,0.00,,SKC,0.00,VWS V14.01,2013-06-04 08:32:00,
2013-06-04 03:37:00,56.8,43.1,30.03,East,94,0.0,0.0,60,0.00,,SKC,0.00,VWS V14.01,2013-06-04 08:37:00,
2013-06-04 03:42:00,56.5,42.8,30.04,East,94,0.0,0.0,60,0.00,,SKC,0.00,VWS V14.01,2013-06-04 08:42:00,
2013-06-04 03:47:00,56.3,43.9,30.03,East,94,0.0,0.0,63,0.00,,SKC,0.00,VWS V14.01,2013-06-04 08:47:00,
2013-06-04 03:52:00,56.0,43.2,30.03,East,94,0.0,0.0,62,0.00,,SKC,0.00,VWS V14.01,2013-06-04 08:52:00,
2013-06-04 03:57:00,55.7,43.7,30.02,East,94,0.0,0.0,64,0.00,,SKC,0.00,VWS V14.01,2013-06-04 08:57:00,
2013-06-04 04:02:00,55.4,43.0,30.01,East,94,0.0,0.0,63,0.00,,SKC,0.00,VWS V14.01,2013-06-04 09:02:00,
2013-06-04 04:07:00,55.2,43.2,30.01,East,94,0.0,1.0,64,0.00,,SKC,0.00,VWS V14.01,2013-06-04 09:07:00,
2013-06-04 04:12:00,55.0,42.7,30.00,East,94,0.0,1.0,63,0.00,,SKC,0.00,VWS V14.01,2013-06-04 09:12:00,
2013-06-04 04:17:00,54.9,43.0,30.00,East,94,0.0,1.0,64,0.00,,SKC,0.00,VWS V14.01,2013-06-04 09:17:00,
2013-06-04 04:22:00,54.9,43.4,30.00,East,94,0.0,1.0,65,0.00,,SKC,0.00,VWS V14.01,2013-06-04 09:22:00,
2013-06-04 04:27:00,54.7,42.8,30.00,East,94,0.0,1.0,64,0.00,,SKC,0.00,VWS V14.01,2013-06-04 09:27:00,
2013-06-04 04:32:00,54.5,42.6,30.00,East,94,0.0,0.0,64,0.00,,SKC,0.00,VWS V14.01,2013-06-04 09:32:00,
2013-06-04 04:37:00,54.5,42.2,30.00,East,94,2.0,2.0,63,0.00,,SKC,0.00,VWS V14.01,2013-06-04 09:37:00,
2013-06-04 04:42:00,54.5,42.2,30.00,ESE,103,4.0,4.0,63,0.00,,SKC,0.00,VWS V14.01,2013-06-04 09:42:00,
2013-06-04 04:47:00,54.5,42.6,29.99,East,94,1.0,5.0,64,0.00,,SKC,0.00,VWS V14.01,2013-06-04 09:47:00,
2013-06-04 04:52:00,54.5,42.2,30.00,East,96,0.0,6.0,63,0.00,,SKC,0.00,VWS V14.01,2013-06-04 09:52:00,
2013-06-04 04:57:00,54.5,42.2,30.00,East,90,0.0,6.0,63,0.00,,SKC,0.00,VWS V14.01,2013-06-04 09:57:00,
2013-06-04 05:02:00,54.6,42.3,29.99,East,87,0.0,5.0,63,0.00,,SKC,0.00,VWS V14.01,2013-06-04 10:02:00,
2013-06-04 05:07:00,54.6,42.3,29.99,East,88,0.0,5.0,63,0.00,,SKC,0.00,VWS V14.01,2013-06-04 10:07:00,
2013-06-04 05:12:00,54.6,41.9,29.99,East,79,1.0,5.0,62,0.00,,SKC,0.00,VWS V14.01,2013-06-04 10:12:00,
2013-06-04 05:17:00,54.6,41.9,29.99,East,92,5.0,6.0,62,0.00,,SKC,0.00,VWS V14.01,2013-06-04 10:17:00,
2013-06-04 05:22:00,54.8,41.6,29.99,NE,50,3.0,6.0,61,0.00,,SKC,0.00,VWS V14.01,2013-06-04 10:22:00,
2013-06-04 05:27:00,54.8,42.0,29.99,SE,133,0.0,6.0,62,0.00,,SKC,0.00,VWS V14.01,2013-06-04 10:27:00,
2013-06-04 05:32:00,54.6,41.9,29.99,East,89,1.0,5.0,62,0.00,,SKC,0.00,VWS V14.01,2013-06-04 10:32:00,
2013-06-04 05:37:00,54.6,41.9,29.98,ESE,105,0.0,5.0,62,0.00,,SKC,0.00,VWS V14.01,2013-06-04 10:37:00,
2013-06-04 05:42:00,54.5,42.2,29.98,East,100,4.0,5.0,63,0.00,,SKC,0.00,VWS V14.01,2013-06-04 10:42:00,
2013-06-04 05:47:00,54.4,42.1,29.97,East,92,2.0,7.0,63,0.00,,SKC,0.00,VWS V14.01,2013-06-04 10:47:00,
2013-06-04 05:52:00,54.4,42.1,29.97,East,81,2.0,7.0,63,0.00,,SKC,0.00,VWS V14.01,2013-06-04 10:52:00,
2013-06-04 05:57:00,54.4,42.1,29.98,ESE,120,4.0,7.0,63,0.00,,SKC,0.00,VWS V14.01,2013-06-04 10:57:00,
2013-06-04 06:02:00,54.5,41.8,29.98,East,83,5.0,8.0,62,0.00,,SKC,0.00,VWS V14.01,2013-06-04 11:02:00,
2013-06-04 06:07:00,54.6,41.9,29.97,ENE,72,2.0,8.0,62,0.00,,SKC,0.00,VWS V14.01,2013-06-04 11:07:00,
2013-06-04 06:12:00,54.7,41.5,29.96,ESE,102,5.0,9.0,61,0.00,,SKC,0.00,VWS V14.01,2013-06-04 11:12:00,
2013-06-04 06:17:00,54.8,42.0,29.96,East,92,4.0,11.0,62,0.00,,SKC,0.00,VWS V14.01,2013-06-04 11:17:00,
2013-06-04 06:22:00,54.8,42.0,29.96,ESE,104,5.0,11.0,62,0.00,,SKC,0.00,VWS V14.01,2013-06-04 11:22:00,
2013-06-04 06:27:00,54.8,42.0,29.95,East,93,4.0,11.0,62,0.00,,SKC,0.00,VWS V14.01,2013-06-04 11:27:00,
2013-06-04 06:32:00,54.8,42.0,29.96,East,92,7.0,8.0,62,0.00,,SKC,0.00,VWS V14.01,2013-06-04 11:32:00,
2013-06-04 06:37:00,54.8,42.0,29.96,ENE,62,4.0,10.0,62,0.00,,SKC,0.00,VWS V14.01,2013-06-04 11:37:00,
2013-06-04 06:42:00,54.9,42.6,29.97,ESE,121,6.0,10.0,63,0.00,,SKC,0.00,VWS V14.01,2013-06-04 11:42:00,
2013-06-04 06:47:00,54.9,43.0,29.97,East,89,6.0,10.0,64,0.00,,SKC,0.00,VWS V14.01,2013-06-04 11:47:00,
2013-06-04 06:52:00,55.1,43.2,29.97,ESE,121,5.0,10.0,64,0.00,,SKC,0.00,VWS V14.01,2013-06-04 11:52:00,
2013-06-04 06:57:00,55.2,42.8,29.98,ESE,107,5.0,10.0,63,0.00,,SKC,0.00,VWS V14.01,2013-06-04 11:57:00,
2013-06-04 07:02:00,55.3,42.9,29.98,East,94,5.0,7.0,63,0.00,,SKC,0.00,VWS V14.01,2013-06-04 12:02:00,
2013-06-04 07:07:00,55.3,42.9,29.99,East,85,2.0,7.0,63,0.00,,SKC,0.00,VWS V14.01,2013-06-04 12:07:00,
2013-06-04 07:12:00,55.4,43.0,30.00,ENE,75,4.0,8.0,63,0.00,,SKC,0.00,VWS V14.01,2013-06-04 12:12:00,
2013-06-04 07:17:00,55.3,42.9,30.00,SE,128,5.0,8.0,63,0.00,,SKC,0.00,VWS V14.01,2013-06-04 12:17:00,
2013-06-04 07:22:00,55.3,43.3,29.99,East,84,2.0,8.0,64,0.00,,SKC,0.00,VWS V14.01,2013-06-04 12:22:00,
2013-06-04 07:27:00,55.2,43.7,29.99,East,90,4.0,8.0,65,0.00,,SKC,0.00,VWS V14.01,2013-06-04 12:27:00,
2013-06-04 07:32:00,55.2,43.7,29.99,ESE,107,1.0,8.0,65,0.00,,SKC,0.00,VWS V14.01,2013-06-04 12:32:00,
2013-06-04 07:37:00,55.2,43.7,29.99,ESE,118,5.0,8.0,65,0.00,,SKC,0.00,VWS V14.01,2013-06-04 12:37:00,
2013-06-04 07:42:00,55.2,44.0,29.98,ESE,119,6.0,11.0,66,0.00,,SKC,0.00,VWS V14.01,2013-06-04 12:42:00,
2013-06-04 07:47:00,55.2,44.0,29.98,SE,125,4.0,12.0,66,0.00,,SKC,0.00,VWS V14.01,2013-06-04 12:47:00,
2013-06-04 07:52:00,55.1,44.7,29.99,East,87,5.0,12.0,68,0.00,,SKC,0.00,VWS V14.01,2013-06-04 12:52:00,
2013-06-04 07:57:00,54.9,45.7,29.99,East,89,1.0,12.0,71,0.00,,SKC,0.00,VWS V14.01,2013-06-04 12:57:00,
2013-06-04 08:02:00,54.5,46.0,29.99,ENE,74,2.0,6.0,73,0.00,,SKC,0.00,VWS V14.01,2013-06-04 13:02:00,
2013-06-04 08:07:00,54.2,46.5,29.99,ESE,105,2.0,8.0,75,0.00,,SKC,0.00,VWS V14.01,2013-06-04 13:07:00,
2013-06-04 08:12:00,54.0,47.0,29.99,East,86,0.0,8.0,77,0.00,,SKC,0.00,VWS V14.01,2013-06-04 13:12:00,
2013-06-04 08:17:00,53.9,46.9,29.99,East,100,1.0,8.0,77,0.00,,SKC,0.00,VWS V14.01,2013-06-04 13:17:00,
2013-06-04 08:22:00,53.9,46.9,30.00,East,82,1.0,8.0,77,0.00,,SKC,0.00,VWS V14.01,2013-06-04 13:22:00,
2013-06-04 08:27:00,54.0,47.3,29.99,East,82,1.0,8.0,78,0.00,,SKC,0.00,VWS V14.01,2013-06-04 13:27:00,
2013-06-04 08:32:00,54.0,47.3,30.00,East,100,0.0,4.0,78,0.00,,SKC,0.00,VWS V14.01,2013-06-04 13:32:00,
2013-06-04 08:37:00,54.1,47.7,30.00,East,96,0.0,4.0,79,0.00,,SKC,0.00,VWS V14.01,2013-06-04 13:37:00,
2013-06-04 08:42:00,54.2,47.8,30.01,East,84,0.0,4.0,79,0.00,,SKC,0.00,VWS V14.01,2013-06-04 13:42:00,
2013-06-04 08:47:00,54.3,47.6,30.01,East,84,1.0,5.0,78,0.00,,SKC,0.00,VWS V14.01,2013-06-04 13:47:00,
2013-06-04 08:52:00,54.4,47.7,30.01,SE,128,0.0,5.0,78,0.00,,SKC,0.00,VWS V14.01,2013-06-04 13:52:00,
2013-06-04 08:57:00,54.6,47.5,30.01,East,82,2.0,5.0,77,0.00,,SKC,0.00,VWS V14.01,2013-06-04 13:57:00,
2013-06-04 09:02:00,54.7,47.6,30.02,East,82,1.0,1.0,77,0.00,,SKC,0.00,VWS V14.01,2013-06-04 14:02:00,
2013-06-04 09:07:00,54.8,48.1,30.02,East,79,0.0,4.0,78,0.00,,SKC,0.00,VWS V14.01,2013-06-04 14:07:00,
2013-06-04 09:12:00,54.8,48.1,30.03,East,88,0.0,4.0,78,0.00,,SKC,0.00,VWS V14.01,2013-06-04 14:12:00,
2013-06-04 09:17:00,54.8,48.1,30.03,East,88,0.0,4.0,78,0.00,,SKC,0.00,VWS V14.01,2013-06-04 14:17:00,
2013-06-04 09:22:00,54.9,48.2,30.03,ENE,72,0.0,4.0,78,0.00,,SKC,0.00,VWS V14.01,2013-06-04 14:22:00,
2013-06-04 09:27:00,54.9,47.8,30.03,ENE,76,0.0,4.0,77,0.00,,SKC,0.00,VWS V14.01,2013-06-04 14:27:00,
2013-06-04 09:32:00,55.0,48.6,30.03,East,88,2.0,4.0,79,0.00,,SKC,0.00,VWS V14.01,2013-06-04 14:32:00,
2013-06-04 09:37:00,55.0,48.3,30.03,East,90,0.0,4.0,78,0.00,,SKC,0.00,VWS V14.01,2013-06-04 14:37:00,
2013-06-04 09:42:00,55.2,48.5,30.03,East,90,0.0,4.0,78,0.00,,SKC,0.00,VWS V14.01,2013-06-04 14:42:00,
2013-06-04 09:47:00,55.4,49.0,30.03,ESE,119,0.0,4.0,79,0.00,,SKC,0.00,VWS V14.01,2013-06-04 14:47:00,
2013-06-04 09:52:00,55.6,49.2,30.03,ESE,119,0.0,4.0,79,0.00,,SKC,0.00,VWS V14.01,2013-06-04 14:52:00,
2013-06-04 09:57:00,55.7,49.6,30.03,NE,53,0.0,4.0,80,0.00,,SKC,0.00,VWS V14.01,2013-06-04 14:57:00,
2013-06-04 10:02:00,55.8,49.4,30.03,East,92,0.0,5.0,79,0.00,,SKC,0.00,VWS V14.01,2013-06-04 15:02:00,
2013-06-04 10:07:00,55.8,49.0,30.03,East,92,0.0,5.0,78,0.00,,SKC,0.00,VWS V14.01,2013-06-04 15:07:00,
2013-06-04 10:12:00,55.9,49.2,30.03,East,92,0.0,5.0,78,0.00,,SKC,0.00,VWS V14.01,2013-06-04 15:12:00,
2013-06-04 10:17:00,55.9,49.2,30.03,East,92,0.0,5.0,78,0.00,,SKC,0.00,VWS V14.01,2013-06-04 15:17:00,
2013-06-04 10:22:00,55.9,48.8,30.04,East,80,1.0,5.0,77,0.00,,SKC,0.00,VWS V14.01,2013-06-04 15:22:00,
2013-06-04 10:27:00,56.0,48.9,30.04,ENE,72,0.0,5.0,77,0.00,,SKC,0.00,VWS V14.01,2013-06-04 15:27:00,
2013-06-04 10:32:00,56.1,49.3,30.04,East,92,0.0,4.0,78,0.00,,SKC,0.00,VWS V14.01,2013-06-04 15:32:00,
2013-06-04 10:37:00,56.0,49.9,30.04,East,92,0.0,4.0,80,0.00,,SKC,0.00,VWS V14.01,2013-06-04 15:37:00,
2013-06-04 10:42:00,56.0,50.3,30.04,East,84,0.0,4.0,81,0.00,,SKC,0.00,VWS V14.01,2013-06-04 15:42:00,
2013-06-04 10:47:00,55.9,50.5,30.05,East,86,0.0,4.0,82,0.00,,SKC,0.00,VWS V14.01,2013-06-04 15:47:00,
2013-06-04 10:52:00,56.0,50.9,30.05,East,86,0.0,4.0,83,0.01,,SKC,0.01,VWS V14.01,2013-06-04 15:52:00,
2013-06-04 10:57:00,56.1,51.0,30.05,East,88,0.0,4.0,83,0.01,,SKC,0.01,VWS V14.01,2013-06-04 15:57:00,
2013-06-04 11:02:00,56.0,51.2,30.05,East,88,0.0,2.0,84,0.02,,SKC,0.02,VWS V14.01,2013-06-04 16:02:00,
2013-06-04 11:07:00,56.0,51.9,30.05,East,89,3.0,5.0,86,0.04,,SKC,0.04,VWS V14.01,2013-06-04 16:07:00,
2013-06-04 11:12:00,56.0,52.2,30.06,East,94,0.0,5.0,87,0.04,,SKC,0.04,VWS V14.01,2013-06-04 16:12:00,
2013-06-04 11:17:00,56.1,52.9,30.05,East,94,0.0,5.0,89,0.04,,SKC,0.04,VWS V14.01,2013-06-04 16:17:00,
2013-06-04 11:22:00,56.2,53.0,30.05,East,95,2.0,5.0,89,0.05,,SKC,0.05,VWS V14.01,2013-06-04 16:22:00,
2013-06-04 11:27:00,56.3,52.8,30.05,East,82,1.0,5.0,88,0.05,,SKC,0.05,VWS V14.01,2013-06-04 16:27:00,
2013-06-04 11:32:00,56.6,53.4,30.04,ESE,110,4.0,5.0,89,0.05,,SKC,0.05,VWS V14.01,2013-06-04 16:32:00,
2013-06-04 11:37:00,56.8,53.0,30.04,East,97,4.0,9.0,87,0.05,,SKC,0.05,VWS V14.01,2013-06-04 16:37:00,
2013-06-04 11:42:00,57.0,53.5,30.04,East,83,4.0,9.0,88,0.05,,SKC,0.05,VWS V14.01,2013-06-04 16:42:00,
2013-06-04 11:47:00,57.2,53.7,30.03,East,88,2.0,9.0,88,0.05,,SKC,0.05,VWS V14.01,2013-06-04 16:47:00,
2013-06-04 11:52:00,57.3,53.8,30.03,ESE,102,4.0,9.0,88,0.05,,SKC,0.05,VWS V14.01,2013-06-04 16:52:00,
2013-06-04 11:57:00,57.3,53.5,30.03,ESE,117,4.0,9.0,87,0.05,,SKC,0.05,VWS V14.01,2013-06-04 16:57:00,
2013-06-04 12:02:00,57.5,54.0,30.02,ESE,107,4.0,7.0,88,0.03,,SKC,0.05,VWS V14.01,2013-06-04 17:02:00,
2013-06-04 12:07:00,57.6,53.8,30.02,East,83,3.0,8.0,87,0.03,,SKC,0.05,VWS V14.01,2013-06-04 17:07:00,
2013-06-04 12:12:00,57.8,54.3,30.02,ESE,102,5.0,8.0,88,0.03,,SKC,0.05,VWS V14.01,2013-06-04 17:12:00,
2013-06-04 12:17:00,58.1,54.3,30.01,SE,144,5.0,8.0,87,0.03,,SKC,0.05,VWS V14.01,2013-06-04 17:17:00,
2013-06-04 12:22:00,58.4,54.2,30.02,East,93,7.0,9.0,86,0.03,,SKC,0.05,VWS V14.01,2013-06-04 17:22:00,
2013-06-04 12:27:00,58.7,54.5,30.02,ESE,103,8.0,9.0,86,0.03,,SKC,0.05,VWS V14.01,2013-06-04 17:27:00,
2013-06-04 12:32:00,59.0,54.5,30.02,ENE,75,2.0,6.0,85,0.00,,SKC,0.05,VWS V14.01,2013-06-04 17:32:00,
2013-06-04 12:37:00,59.3,54.8,30.02,ESE,110,4.0,8.0,85,0.00,,SKC,0.05,VWS V14.01,2013-06-04 17:37:00,
2013-06-04 12:42:00,59.8,55.0,30.01,East,92,6.0,8.0,84,0.00,,SKC,0.05,VWS V14.01,2013-06-04 17:42:00,
2013-06-04 12:47:00,60.5,55.3,30.01,East,89,4.0,12.0,83,0.00,,SKC,0.05,VWS V14.01,2013-06-04 17:47:00,
2013-06-04 12:52:00,61.1,55.9,30.00,SE,144,8.0,12.0,83,0.00,,SKC,0.05,VWS V14.01,2013-06-04 17:52:00,
2013-06-04 12:57:00,61.4,55.5,30.00,SE,134,4.0,12.0,81,0.00,,SKC,0.05,VWS V14.01,2013-06-04 17:57:00,
2013-06-04 13:02:00,61.3,55.4,30.01,East,88,12.0,12.0,81,0.00,,SKC,0.05,VWS V14.01,2013-06-04 18:02:00,
2013-06-04 13:07:00,61.2,54.6,30.01,ESE,113,9.0,14.0,79,0.00,,SKC,0.05,VWS V14.01,2013-06-04 18:07:00,
2013-06-04 13:12:00,61.1,54.2,30.01,ESE,111,11.0,15.0,78,0.00,,SKC,0.05,VWS V14.01,2013-06-04 18:12:00,
2013-06-04 13:17:00,61.2,53.9,30.00,East,90,5.0,15.0,77,0.00,,SKC,0.05,VWS V14.01,2013-06-04 18:17:00,
2013-06-04 13:22:00,61.4,53.8,30.00,ESE,113,8.0,15.0,76,0.00,,SKC,0.05,VWS V14.01,2013-06-04 18:22:00,
2013-06-04 13:27:00,61.7,53.7,30.01,East,95,7.0,15.0,75,0.00,,SKC,0.05,VWS V14.01,2013-06-04 18:27:00,
2013-06-04 13:32:00,61.6,53.6,30.01,SE,128,9.0,15.0,75,0.00,,SKC,0.05,VWS V14.01,2013-06-04 18:32:00,
2013-06-04 13:37:00,61.6,53.2,30.01,ESE,117,8.0,18.0,74,0.00,,SKC,0.05,VWS V14.01,2013-06-04 18:37:00,
2013-06-04 13:42:00,61.5,53.2,30.00,ENE,68,10.0,18.0,74,0.00,,SKC,0.05,VWS V14.01,2013-06-04 18:42:00,
2013-06-04 13:47:00,61.6,53.6,30.00,SE,125,6.0,18.0,75,0.00,,SKC,0.05,VWS V14.01,2013-06-04 18:47:00,
2013-06-04 13:52:00,61.8,53.4,30.00,East,101,8.0,18.0,74,0.00,,SKC,0.05,VWS V14.01,2013-06-04 18:52:00,
2013-06-04 13:57:00,62.1,53.3,30.00,ESE,117,7.0,18.0,73,0.00,,SKC,0.05,VWS V14.01,2013-06-04 18:57:00,
2013-06-04 14:02:00,62.4,53.6,30.00,East,86,11.0,15.0,73,0.00,,SKC,0.05,VWS V14.01,2013-06-04 19:02:00,
2013-06-04 14:07:00,62.6,53.5,30.00,ENE,74,13.0,15.0,72,0.00,,SKC,0.05,VWS V14.01,2013-06-04 19:07:00,
2013-06-04 14:12:00,63.1,53.9,30.00,SE,129,11.0,20.0,72,0.00,,SKC,0.05,VWS V14.01,2013-06-04 19:12:00,
2013-06-04 14:17:00,63.5,54.3,30.00,SE,125,6.0,20.0,72,0.00,,SKC,0.05,VWS V14.01,2013-06-04 19:17:00,
2013-06-04 14:22:00,63.9,54.3,30.00,SE,137,12.0,20.0,71,0.00,,SKC,0.05,VWS V14.01,2013-06-04 19:22:00,
2013-06-04 14:27:00,64.2,53.8,30.00,East,87,7.0,20.0,69,0.00,,SKC,0.05,VWS V14.01,2013-06-04 19:27:00,
2013-06-04 14:32:00,63.8,53.5,30.00,ESE,118,13.0,21.0,69,0.00,,SKC,0.05,VWS V14.01,2013-06-04 19:32:00,
2013-06-04 14:37:00,63.2,53.7,30.00,ESE,118,12.0,21.0,71,0.00,,SKC,0.05,VWS V14.01,2013-06-04 19:37:00,
2013-06-04 14:42:00,62.8,53.3,30.01,ESE,121,11.0,21.0,71,0.00,,SKC,0.05,VWS V14.01,2013-06-04 19:42:00,
2013-06-04 14:47:00,62.5,53.0,30.01,SE,132,11.0,21.0,71,0.00,,SKC,0.05,VWS V14.01,2013-06-04 19:47:00,
2013-06-04 14:52:00,62.3,52.4,30.01,East,81,14.0,21.0,70,0.00,,SKC,0.05,VWS V14.01,2013-06-04 19:52:00,
2013-06-04 14:57:00,62.3,53.5,30.01,SE,127,14.0,21.0,73,0.00,,SKC,0.05,VWS V14.01,2013-06-04 19:57:00,
2013-06-04 15:02:00,62.4,52.5,30.01,ESE,116,11.0,17.0,70,0.00,,SKC,0.05,VWS V14.01,2013-06-04 20:02:00,
2013-06-04 15:07:00,62.3,53.2,30.01,East,90,8.0,17.0,72,0.00,,SKC,0.05,VWS V14.01,2013-06-04 20:07:00,
2013-06-04 15:12:00,62.2,53.1,30.02,ESE,103,6.0,17.0,72,0.00,,SKC,0.05,VWS V14.01,2013-06-04 20:12:00,
2013-06-04 15:17:00,62.0,52.5,30.03,ENE,69,6.0,17.0,71,0.00,,SKC,0.05,VWS V14.01,2013-06-04 20:17:00,
2013-06-04 15:22:00,61.8,52.7,30.03,SE,138,8.0,17.0,72,0.00,,SKC,0.05,VWS V14.01,2013-06-04 20:22:00,
2013-06-04 15:27:00,61.6,52.5,30.03,ESE,119,5.0,17.0,72,0.00,,SKC,0.05,VWS V14.01,2013-06-04 20:27:00,
2013-06-04 15:32:00,61.6,52.9,30.02,ESE,105,7.0,9.0,73,0.00,,SKC,0.05,VWS V14.01,2013-06-04 20:32:00,
2013-06-04 15:37:00,61.6,52.9,30.02,ESE,111,5.0,11.0,73,0.00,,SKC,0.05,VWS V14.01,2013-06-04 20:37:00,
2013-06-04 15:42:00,61.6,53.2,30.02,ENE,66,5.0,11.0,74,0.00,,SKC,0.05,VWS V14.01,2013-06-04 20:42:00,
2013-06-04 15:47:00,61.6,53.2,30.02,ESE,119,7.0,11.0,74,0.00,,SKC,0.05,VWS V14.01,2013-06-04 20:47:00,
2013-06-04 15:52:00,61.5,53.2,30.02,East,86,8.0,11.0,74,0.00,,SKC,0.05,VWS V14.01,2013-06-04 20:52:00,
2013-06-04 15:57:00,61.3,53.7,30.02,ESE,115,5.0,11.0,76,0.00,,SKC,0.05,VWS V14.01,2013-06-04 20:57:00,
2013-06-04 16:02:00,60.9,53.7,30.02,ESE,121,5.0,11.0,77,0.00,,SKC,0.05,VWS V14.01,2013-06-04 21:02:00,
2013-06-04 16:07:00,60.7,53.1,30.01,East,93,5.0,12.0,76,0.00,,SKC,0.05,VWS V14.01,2013-06-04 21:07:00,
2013-06-04 16:12:00,60.5,52.9,30.01,ESE,108,7.0,12.0,76,0.00,,SKC,0.05,VWS V14.01,2013-06-04 21:12:00,
2013-06-04 16:17:00,60.0,53.8,30.01,ESE,105,7.0,12.0,80,0.01,,SKC,0.06,VWS V14.01,2013-06-04 21:17:00,
2013-06-04 16:22:00,59.3,53.8,30.02,ESE,106,6.0,12.0,82,0.02,,SKC,0.07,VWS V14.01,2013-06-04 21:22:00,
2013-06-04 16:27:00,58.6,53.8,30.01,SE,127,6.0,12.0,84,0.02,,SKC,0.07,VWS V14.01,2013-06-04 21:27:00,
2013-06-04 16:32:00,58.0,53.5,30.01,ESE,121,1.0,8.0,85,0.02,,SKC,0.07,VWS V14.01,2013-06-04 21:32:00,
2013-06-04 16:37:00,57.6,53.5,30.01,ESE,106,6.0,11.0,86,0.02,,SKC,0.07,VWS V14.01,2013-06-04 21:37:00,
2013-06-04 16:42:00,57.4,53.2,30.01,East,98,6.0,11.0,86,0.02,,SKC,0.07,VWS V14.01,2013-06-04 21:42:00,
2013-06-04 16:47:00,57.4,53.2,30.01,ESE,121,7.0,11.0,86,0.02,,SKC,0.07,VWS V14.01,2013-06-04 21:47:00,
2013-06-04 16:52:00,57.3,53.2,30.01,ESE,115,7.0,11.0,86,0.02,,SKC,0.07,VWS V14.01,2013-06-04 21:52:00,
2013-06-04 16:57:00,57.4,52.6,30.00,ESE,117,8.0,12.0,84,0.02,,SKC,0.07,VWS V14.01,2013-06-04 21:57:00,
2013-06-04 17:02:00,57.5,52.4,30.00,SSE,149,8.0,9.0,83,0.02,,SKC,0.07,VWS V14.01,2013-06-04 22:02:00,
2013-06-04 17:07:00,57.6,52.2,30.00,SE,133,8.0,12.0,82,0.02,,SKC,0.07,VWS V14.01,2013-06-04 22:07:00,
2013-06-04 17:12:00,57.6,52.2,30.00,ESE,114,5.0,12.0,82,0.02,,SKC,0.07,VWS V14.01,2013-06-04 22:12:00,
2013-06-04 17:17:00,57.5,52.1,30.00,ESE,121,7.0,12.0,82,0.03,,SKC,0.08,VWS V14.01,2013-06-04 22:17:00,
2013-06-04 17:22:00,57.2,52.1,30.00,East,97,6.0,12.0,83,0.03,,SKC,0.08,VWS V14.01,2013-06-04 22:22:00,
2013-06-04 17:27:00,57.0,51.6,30.00,ESE,113,5.0,12.0,82,0.03,,SKC,0.08,VWS V14.01,2013-06-04 22:27:00,
2013-06-04 17:32:00,56.9,51.5,30.00,East,101,5.0,7.0,82,0.01,,SKC,0.08,VWS V14.01,2013-06-04 22:32:00,
2013-06-04 17:37:00,56.9,51.5,29.99,ESE,114,7.0,9.0,82,0.01,,SKC,0.08,VWS V14.01,2013-06-04 22:37:00,
2013-06-04 17:42:00,56.9,51.1,29.99,ESE,109,4.0,9.0,81,0.01,,SKC,0.08,VWS V14.01,2013-06-04 22:42:00,
2013-06-04 17:47:00,57.0,51.2,30.00,East,98,1.0,9.0,81,0.01,,SKC,0.08,VWS V14.01,2013-06-04 22:47:00,
2013-06-04 17:52:00,57.1,51.0,30.00,SE,127,4.0,9.0,80,0.01,,SKC,0.08,VWS V14.01,2013-06-04 22:52:00,
2013-06-04 17:57:00,57.2,51.1,30.01,East,83,0.0,9.0,80,0.01,,SKC,0.08,VWS V14.01,2013-06-04 22:57:00,
2013-06-04 18:02:00,57.2,51.1,30.01,ESE,113,2.0,6.0,80,0.01,,SKC,0.08,VWS V14.01,2013-06-04 23:02:00,
2013-06-04 18:07:00,57.2,51.1,30.01,East,101,0.0,6.0,80,0.01,,SKC,0.08,VWS V14.01,2013-06-04 23:07:00,
2013-06-04 18:12:00,57.2,51.1,30.01,ESE,119,4.0,12.0,80,0.01,,SKC,0.08,VWS V14.01,2013-06-04 23:12:00,
2013-06-04 18:17:00,57.3,50.8,30.01,ENE,78,0.0,12.0,79,0.01,,SKC,0.08,VWS V14.01,2013-06-04 23:17:00,
2013-06-04 18:22:00,57.2,51.1,30.01,East,94,0.0,12.0,80,0.01,,SKC,0.08,VWS V14.01,2013-06-04 23:22:00,
2013-06-04 18:27:00,57.3,51.2,30.00,ESE,117,1.0,12.0,80,0.01,,SKC,0.08,VWS V14.01,2013-06-04 23:27:00,
2013-06-04 18:32:00,57.2,51.1,30.00,East,88,4.0,11.0,80,0.00,,SKC,0.08,VWS V14.01,2013-06-04 23:32:00,
2013-06-04 18:37:00,57.2,50.8,30.00,ENE,78,7.0,11.0,79,0.00,,SKC,0.08,VWS V14.01,2013-06-04 23:37:00,
2013-06-04 18:42:00,57.3,50.8,30.00,East,81,4.0,11.0,79,0.00,,SKC,0.08,VWS V14.01,2013-06-04 23:42:00,
2013-06-04 18:47:00,57.3,50.8,30.00,SE,127,5.0,11.0,79,0.00,,SKC,0.08,VWS V14.01,2013-06-04 23:47:00,
2013-06-04 18:52:00,57.3,50.8,30.00,SE,132,7.0,11.0,79,0.00,,SKC,0.08,VWS V14.01,2013-06-04 23:52:00,
2013-06-04 18:57:00,57.3,50.5,30.00,East,94,2.0,11.0,78,0.00,,SKC,0.08,VWS V14.01,2013-06-04 23:57:00,
2013-06-04 19:02:00,57.3,50.5,30.00,East,83,4.0,8.0,78,0.00,,SKC,0.08,VWS V14.01,2013-06-05 00:02:00,
2013-06-04 19:07:00,57.3,50.5,30.00,East,82,3.0,8.0,78,0.00,,SKC,0.08,VWS V14.01,2013-06-05 00:07:00,
2013-06-04 19:12:00,57.3,50.8,30.00,ESE,115,5.0,8.0,79,0.00,,SKC,0.08,VWS V14.01,2013-06-05 00:12:00,
2013-06-04 19:17:00,57.2,50.8,30.00,ESE,116,5.0,8.0,79,0.00,,SKC,0.08,VWS V14.01,2013-06-05 00:17:00,
2013-06-04 19:22:00,57.1,50.7,30.00,East,89,2.0,8.0,79,0.00,,SKC,0.08,VWS V14.01,2013-06-05 00:22:00,
2013-06-04 19:27:00,57.0,50.6,30.01,ESE,105,0.0,8.0,79,0.00,,SKC,0.08,VWS V14.01,2013-06-05 00:27:00,
2013-06-04 19:32:00,56.9,50.5,30.02,East,92,7.0,7.0,79,0.00,,SKC,0.08,VWS V14.01,2013-06-05 00:32:00,
2013-06-04 19:37:00,56.9,50.1,30.02,East,92,1.0,9.0,78,0.00,,SKC,0.08,VWS V14.01,2013-06-05 00:37:00,
2013-06-04 19:42:00,56.9,50.5,30.02,SE,142,10.0,10.0,79,0.00,,SKC,0.08,VWS V14.01,2013-06-05 00:42:00,
2013-06-04 19:47:00,56.9,50.1,30.02,East,94,4.0,10.0,78,0.00,,SKC,0.08,VWS V14.01,2013-06-05 00:47:00,
2013-06-04 19:52:00,56.9,50.5,30.03,East,94,0.0,10.0,79,0.00,,SKC,0.08,VWS V14.01,2013-06-05 00:52:00,
2013-06-04 19:57:00,56.8,50.4,30.03,East,94,0.0,10.0,79,0.00,,SKC,0.08,VWS V14.01,2013-06-05 00:57:00,
2013-06-04 20:02:00,56.7,50.6,30.04,East,94,0.0,0.0,80,0.00,,SKC,0.08,VWS V14.01,2013-06-05 01:02:00,
2013-06-04 20:07:00,56.6,50.8,30.04,East,94,0.0,0.0,81,0.00,,SKC,0.08,VWS V14.01,2013-06-05 01:07:00,
2013-06-04 20:12:00,56.4,51.0,30.04,East,94,0.0,4.0,82,0.00,,SKC,0.08,VWS V14.01,2013-06-05 01:12:00,
2013-06-04 20:17:00,56.3,50.5,30.04,East,94,0.0,4.0,81,0.00,,SKC,0.08,VWS V14.01,2013-06-05 01:17:00,
2013-06-04 20:22:00,56.2,50.5,30.04,SE,135,4.0,6.0,81,0.00,,SKC,0.08,VWS V14.01,2013-06-05 01:22:00,
2013-06-04 20:27:00,56.2,50.5,30.05,ESE,119,1.0,7.0,81,0.00,,SKC,0.08,VWS V14.01,2013-06-05 01:27:00,
2013-06-04 20:32:00,56.2,50.5,30.05,ESE,120,0.0,4.0,81,0.00,,SKC,0.08,VWS V14.01,2013-06-05 01:32:00,
2013-06-04 20:37:00,56.1,50.7,30.05,ESE,119,2.0,4.0,82,0.00,,SKC,0.08,VWS V14.01,2013-06-05 01:37:00,
2013-06-04 20:42:00,55.9,51.1,30.06,ESE,119,0.0,4.0,84,0.00,,SKC,0.08,VWS V14.01,2013-06-05 01:42:00,
2013-06-04 20:47:00,55.6,51.5,30.06,ESE,119,0.0,4.0,86,0.01,,SKC,0.09,VWS V14.01,2013-06-05 01:47:00,
2013-06-04 20:52:00,55.1,51.6,30.06,ESE,119,0.0,4.0,88,0.01,,SKC,0.09,VWS V14.01,2013-06-05 01:52:00,
2013-06-04 20:57:00,54.7,51.8,30.05,ESE,103,4.0,6.0,90,0.02,,SKC,0.10,VWS V14.01,2013-06-05 01:57:00,
2013-06-04 21:02:00,54.1,51.5,30.03,East,96,5.0,11.0,91,0.04,,SKC,0.12,VWS V14.01,2013-06-05 02:02:00,
2013-06-04 21:07:00,53.7,51.4,30.02,ESE,109,7.0,13.0,92,0.05,,SKC,0.13,VWS V14.01,2013-06-05 02:07:00,
2013-06-04 21:12:00,53.5,51.5,30.02,ESE,116,7.0,13.0,93,0.06,,SKC,0.14,VWS V14.01,2013-06-05 02:12:00,
2013-06-04 21:17:00,53.3,51.3,30.02,East,96,7.0,14.0,93,0.06,,SKC,0.14,VWS V14.01,2013-06-05 02:17:00,
2013-06-04 21:22:00,53.2,51.2,30.02,ESE,103,6.0,14.0,93,0.06,,SKC,0.14,VWS V14.01,2013-06-05 02:22:00,
2013-06-04 21:27:00,53.1,51.4,30.02,East,88,12.0,14.0,94,0.08,,SKC,0.16,VWS V14.01,2013-06-05 02:27:00,
2013-06-04 21:32:00,53.0,51.3,30.02,East,86,6.0,14.0,94,0.09,,SKC,0.17,VWS V14.01,2013-06-05 02:32:00,
2013-06-04 21:37:00,52.9,51.2,30.02,ENE,77,6.0,17.0,94,0.10,,SKC,0.18,VWS V14.01,2013-06-05 02:37:00,
2013-06-04 21:42:00,52.8,51.1,30.01,ENE,63,6.0,17.0,94,0.10,,SKC,0.18,VWS V14.01,2013-06-05 02:42:00,
2013-06-04 21:47:00,52.7,51.0,30.02,SE,136,6.0,17.0,94,0.11,,SKC,0.19,VWS V14.01,2013-06-05 02:47:00,
2013-06-04 21:52:00,52.7,51.0,30.02,East,88,6.0,17.0,94,0.11,,SKC,0.19,VWS V14.01,2013-06-05 02:52:00,
2013-06-04 21:57:00,52.7,51.0,30.01,ENE,76,8.0,17.0,94,0.12,,SKC,0.20,VWS V14.01,2013-06-05 02:57:00,
2013-06-04 22:02:00,52.7,51.0,30.03,ESE,122,0.0,9.0,94,0.10,,SKC,0.21,VWS V14.01,2013-06-05 03:02:00,
2013-06-04 22:07:00,52.7,51.0,30.03,East,98,5.0,9.0,94,0.10,,SKC,0.21,VWS V14.01,2013-06-05 03:07:00,
2013-06-04 22:12:00,52.7,51.0,30.03,ESE,106,0.0,9.0,94,0.10,,SKC,0.21,VWS V14.01,2013-06-05 03:12:00,
2013-06-04 22:17:00,52.6,51.2,30.03,ESE,105,0.0,9.0,95,0.10,,SKC,0.21,VWS V14.01,2013-06-05 03:17:00,
2013-06-04 22:22:00,52.6,51.2,30.03,ESE,103,5.0,9.0,95,0.10,,SKC,0.21,VWS V14.01,2013-06-05 03:22:00,
2013-06-04 22:27:00,52.6,50.9,30.02,East,86,3.0,11.0,94,0.10,,SKC,0.21,VWS V14.01,2013-06-05 03:27:00,
2013-06-04 22:32:00,52.5,50.8,30.02,ESE,112,2.0,8.0,94,0.05,,SKC,0.21,VWS V14.01,2013-06-05 03:32:00,
2013-06-04 22:37:00,52.5,51.1,30.02,SE,132,1.0,8.0,95,0.05,,SKC,0.21,VWS V14.01,2013-06-05 03:37:00,
2013-06-04 22:42:00,52.5,51.1,30.03,ESE,117,0.0,8.0,95,0.05,,SKC,0.21,VWS V14.01,2013-06-05 03:42:00,
2013-06-04 22:46:00,52.5,51.1,30.03,East,88,0.0,8.0,95,0.05,,SKC,0.21,VWS V14.01,2013-06-05 03:46:00,
2013-06-04 22:51:00,52.6,51.2,30.03,East,82,1.0,8.0,95,0.05,,SKC,0.21,VWS V14.01,2013-06-05 03:51:00,
2013-06-04 22:56:00,52.6,51.2,30.03,East,88,0.0,8.0,95,0.05,,SKC,0.21,VWS V14.01,2013-06-05 03:56:00,
2013-06-04 23:01:00,52.6,51.2,30.02,ESE,112,0.0,5.0,95,0.01,,SKC,0.21,VWS V14.01,2013-06-05 04:01:00,
2013-06-04 23:06:00,52.5,51.1,30.02,East,88,3.0,6.0,95,0.01,,SKC,0.21,VWS V14.01,2013-06-05 04:06:00,
2013-06-04 23:11:00,52.5,51.1,30.02,SE,128,6.0,8.0,95,0.01,,SKC,0.21,VWS V14.01,2013-06-05 04:11:00,
2013-06-04 23:16:00,52.6,51.2,30.01,East,94,5.0,9.0,95,0.01,,SKC,0.21,VWS V14.01,2013-06-05 04:16:00,
2013-06-04 23:21:00,52.6,51.2,30.01,East,97,0.0,9.0,95,0.01,,SKC,0.21,VWS V14.01,2013-06-05 04:21:00,
2013-06-04 23:26:00,52.6,51.2,30.01,East,97,2.0,9.0,95,0.01,,SKC,0.21,VWS V14.01,2013-06-05 04:26:00,
2013-06-04 23:32:00,52.6,51.2,30.01,East,90,5.0,7.0,95,0.00,,SKC,0.21,VWS V14.01,2013-06-05 04:32:00,
2013-06-04 23:37:00,52.6,51.2,30.01,East,81,6.0,7.0,95,0.00,,SKC,0.21,VWS V14.01,2013-06-05 04:37:00,
2013-06-04 23:42:00,52.6,51.2,30.01,ENE,70,6.0,7.0,95,0.00,,SKC,0.21,VWS V14.01,2013-06-05 04:42:00,
2013-06-04 23:47:00,52.6,51.2,30.01,SE,128,6.0,7.0,95,0.00,,SKC,0.21,VWS V14.01,2013-06-05 04:47:00,
2013-06-04 23:52:00,52.6,51.2,30.01,SE,126,2.0,7.0,95,0.00,,SKC,0.21,VWS V14.01,2013-06-05 04:52:00,
2013-06-04 23:56:00,52.6,51.2,30.01,SE,126,2.0,7.0,95,0.00,,SKC,0.21,VWS V14.01,2013-06-05 04:56:00,